sensor_id;sensor_type;location;lat;lon;timestamp;P1;durP1;ratioP1;P2;durP2;ratioP2
5569;SDS011;2808;51.240;6.794;2024-01-15T00:00:54;46.73;;;16.70;;
5569;SDS011;2808;51.240;6.794;2024-01-15T00:03:46;42.47;;;16.77;;
5569;SDS011;2808;51.240;6.794;2024-01-15T00:17:10;52.33;;;15.90;;
5569;SDS011;2808;51.240;6.794;2024-01-15T00:19:43;49.53;;;17.60;;
5569;SDS011;2808;51.240;6.794;2024-01-15T00:22:13;60.03;;;18.10;;
5569;SDS011;2808;51.240;6.794;2024-01-15T00:24:49;46.83;;;19.07;;
5569;SDS011;2808;51.240;6.794;2024-01-15T00:27:24;48.47;;;16.60;;
5569;SDS011;2808;51.240;6.794;2024-01-15T00:29:52;44.00;;;16.77;;
5569;SDS011;2808;51.240;6.794;2024-01-15T00:32:25;40.37;;;16.73;;
5569;SDS011;2808;51.240;6.794;2024-01-15T00:34:55;45.47;;;17.00;;
5569;SDS011;2808;51.240;6.794;2024-01-15T00:37:27;42.13;;;16.87;;
5569;SDS011;2808;51.240;6.794;2024-01-15T00:39:54;49.77;;;17.97;;
5569;SDS011;2808;51.240;6.794;2024-01-15T00:42:22;43.93;;;17.17;;
5569;SDS011;2808;51.240;6.794;2024-01-15T00:44:51;43.43;;;15.77;;
5569;SDS011;2808;51.240;6.794;2024-01-15T00:47:19;49.73;;;17.97;;
5569;SDS011;2808;51.240;6.794;2024-01-15T00:49:57;54.27;;;18.67;;
5569;SDS011;2808;51.240;6.794;2024-01-15T00:52:28;36.67;;;15.47;;
5569;SDS011;2808;51.240;6.794;2024-01-15T00:54:59;43.33;;;18.07;;
5569;SDS011;2808;51.240;6.794;2024-01-15T00:57:30;40.90;;;18.00;;
5569;SDS011;2808;51.240;6.794;2024-01-15T01:00:01;41.43;;;16.50;;
5569;SDS011;2808;51.240;6.794;2024-01-15T01:02:40;48.30;;;17.70;;
5569;SDS011;2808;51.240;6.794;2024-01-15T01:05:13;41.47;;;16.87;;
5569;SDS011;2808;51.240;6.794;2024-01-15T01:07:45;44.10;;;17.03;;
5569;SDS011;2808;51.240;6.794;2024-01-15T01:10:13;48.03;;;17.87;;
5569;SDS011;2808;51.240;6.794;2024-01-15T01:12:42;40.53;;;17.17;;
5569;SDS011;2808;51.240;6.794;2024-01-15T01:15:16;46.10;;;17.00;;
5569;SDS011;2808;51.240;6.794;2024-01-15T01:17:50;43.40;;;17.50;;
5569;SDS011;2808;51.240;6.794;2024-01-15T01:20:19;40.27;;;17.13;;
5569;SDS011;2808;51.240;6.794;2024-01-15T01:22:53;41.50;;;17.27;;
5569;SDS011;2808;51.240;6.794;2024-01-15T01:25:20;42.27;;;16.60;;
5569;SDS011;2808;51.240;6.794;2024-01-15T01:27:51;39.10;;;16.57;;
5569;SDS011;2808;51.240;6.794;2024-01-15T01:30:21;40.53;;;16.00;;
5569;SDS011;2808;51.240;6.794;2024-01-15T01:32:48;36.77;;;16.23;;
5569;SDS011;2808;51.240;6.794;2024-01-15T01:35:16;44.07;;;16.10;;
5569;SDS011;2808;51.240;6.794;2024-01-15T01:37:44;38.87;;;16.20;;
5569;SDS011;2808;51.240;6.794;2024-01-15T01:40:12;41.93;;;15.33;;
5569;SDS011;2808;51.240;6.794;2024-01-15T01:42:39;38.33;;;16.40;;
5569;SDS011;2808;51.240;6.794;2024-01-15T01:45:07;37.63;;;14.83;;
5569;SDS011;2808;51.240;6.794;2024-01-15T01:47:38;38.93;;;15.27;;
5569;SDS011;2808;51.240;6.794;2024-01-15T01:50:09;40.43;;;15.70;;
5569;SDS011;2808;51.240;6.794;2024-01-15T01:52:39;38.93;;;14.60;;
5569;SDS011;2808;51.240;6.794;2024-01-15T01:55:07;33.87;;;14.37;;
5569;SDS011;2808;51.240;6.794;2024-01-15T01:57:38;39.37;;;14.63;;
5569;SDS011;2808;51.240;6.794;2024-01-15T02:00:07;38.03;;;15.17;;
5569;SDS011;2808;51.240;6.794;2024-01-15T02:02:42;32.87;;;13.63;;
5569;SDS011;2808;51.240;6.794;2024-01-15T02:05:12;34.63;;;14.30;;
5569;SDS011;2808;51.240;6.794;2024-01-15T02:07:46;35.97;;;15.40;;
5569;SDS011;2808;51.240;6.794;2024-01-15T02:10:13;40.83;;;15.00;;
5569;SDS011;2808;51.240;6.794;2024-01-15T02:12:42;34.73;;;13.77;;
5569;SDS011;2808;51.240;6.794;2024-01-15T02:15:13;33.67;;;14.10;;
5569;SDS011;2808;51.240;6.794;2024-01-15T02:17:57;35.80;;;14.43;;
5569;SDS011;2808;51.240;6.794;2024-01-15T02:20:27;36.83;;;16.03;;
5569;SDS011;2808;51.240;6.794;2024-01-15T02:23:03;34.20;;;13.40;;
5569;SDS011;2808;51.240;6.794;2024-01-15T02:25:43;29.23;;;12.50;;
5569;SDS011;2808;51.240;6.794;2024-01-15T02:28:14;34.30;;;13.60;;
5569;SDS011;2808;51.240;6.794;2024-01-15T02:30:46;28.23;;;11.80;;
5569;SDS011;2808;51.240;6.794;2024-01-15T02:33:17;31.90;;;13.10;;
5569;SDS011;2808;51.240;6.794;2024-01-15T02:35:45;30.63;;;12.50;;
5569;SDS011;2808;51.240;6.794;2024-01-15T02:38:19;41.57;;;12.90;;
5569;SDS011;2808;51.240;6.794;2024-01-15T02:40:53;31.70;;;12.77;;
5569;SDS011;2808;51.240;6.794;2024-01-15T02:43:20;32.60;;;12.43;;
5569;SDS011;2808;51.240;6.794;2024-01-15T02:45:48;28.57;;;11.97;;
5569;SDS011;2808;51.240;6.794;2024-01-15T02:48:15;33.10;;;12.57;;
5569;SDS011;2808;51.240;6.794;2024-01-15T02:50:43;30.80;;;12.27;;
5569;SDS011;2808;51.240;6.794;2024-01-15T02:53:13;29.07;;;12.23;;
5569;SDS011;2808;51.240;6.794;2024-01-15T02:55:42;31.47;;;12.23;;
5569;SDS011;2808;51.240;6.794;2024-01-15T02:58:09;29.53;;;11.73;;
5569;SDS011;2808;51.240;6.794;2024-01-15T03:00:37;40.17;;;13.13;;
5569;SDS011;2808;51.240;6.794;2024-01-15T03:03:05;26.97;;;11.80;;
5569;SDS011;2808;51.240;6.794;2024-01-15T03:05:35;29.33;;;10.53;;
5569;SDS011;2808;51.240;6.794;2024-01-15T03:08:03;26.47;;;12.23;;
5569;SDS011;2808;51.240;6.794;2024-01-15T03:10:33;36.70;;;12.87;;
5569;SDS011;2808;51.240;6.794;2024-01-15T03:13:05;30.13;;;13.10;;
5569;SDS011;2808;51.240;6.794;2024-01-15T03:15:35;30.23;;;11.60;;
5569;SDS011;2808;51.240;6.794;2024-01-15T03:18:08;33.57;;;12.87;;
5569;SDS011;2808;51.240;6.794;2024-01-15T03:20:36;24.27;;;11.70;;
5569;SDS011;2808;51.240;6.794;2024-01-15T03:23:06;30.77;;;10.73;;
5569;SDS011;2808;51.240;6.794;2024-01-15T03:25:34;25.13;;;11.47;;
5569;SDS011;2808;51.240;6.794;2024-01-15T03:28:06;25.73;;;11.43;;
5569;SDS011;2808;51.240;6.794;2024-01-15T03:30:33;31.33;;;11.60;;
5569;SDS011;2808;51.240;6.794;2024-01-15T03:33:08;27.90;;;10.83;;
5569;SDS011;2808;51.240;6.794;2024-01-15T03:35:36;25.00;;;10.40;;
5569;SDS011;2808;51.240;6.794;2024-01-15T03:38:12;28.77;;;12.30;;
5569;SDS011;2808;51.240;6.794;2024-01-15T03:40:48;26.43;;;10.03;;
5569;SDS011;2808;51.240;6.794;2024-01-15T03:43:17;20.03;;;10.00;;
5569;SDS011;2808;51.240;6.794;2024-01-15T03:45:50;25.30;;;10.13;;
5569;SDS011;2808;51.240;6.794;2024-01-15T03:48:18;26.73;;;11.03;;
5569;SDS011;2808;51.240;6.794;2024-01-15T03:50:48;27.03;;;10.00;;
5569;SDS011;2808;51.240;6.794;2024-01-15T03:53:19;24.10;;;10.00;;
5569;SDS011;2808;51.240;6.794;2024-01-15T03:55:49;25.17;;;10.23;;
5569;SDS011;2808;51.240;6.794;2024-01-15T03:58:20;25.90;;;11.20;;
5569;SDS011;2808;51.240;6.794;2024-01-15T04:00:47;25.10;;;10.50;;
5569;SDS011;2808;51.240;6.794;2024-01-15T04:03:22;21.77;;;10.27;;
5569;SDS011;2808;51.240;6.794;2024-01-15T04:05:57;26.90;;;10.03;;
5569;SDS011;2808;51.240;6.794;2024-01-15T04:08:27;24.97;;;10.13;;
5569;SDS011;2808;51.240;6.794;2024-01-15T04:10:55;24.10;;;10.40;;
5569;SDS011;2808;51.240;6.794;2024-01-15T04:13:31;21.77;;;10.13;;
5569;SDS011;2808;51.240;6.794;2024-01-15T04:16:02;24.80;;;10.23;;
5569;SDS011;2808;51.240;6.794;2024-01-15T04:18:30;20.93;;;10.40;;
5569;SDS011;2808;51.240;6.794;2024-01-15T04:21:00;33.07;;;9.50;;
5569;SDS011;2808;51.240;6.794;2024-01-15T04:23:30;20.83;;;10.70;;
5569;SDS011;2808;51.240;6.794;2024-01-15T04:25:57;27.77;;;9.50;;
5569;SDS011;2808;51.240;6.794;2024-01-15T04:28:28;21.80;;;11.33;;
5569;SDS011;2808;51.240;6.794;2024-01-15T04:30:56;27.73;;;11.10;;
5569;SDS011;2808;51.240;6.794;2024-01-15T04:33:23;20.17;;;9.30;;
5569;SDS011;2808;51.240;6.794;2024-01-15T04:35:55;23.40;;;9.27;;
5569;SDS011;2808;51.240;6.794;2024-01-15T04:38:22;24.60;;;8.80;;
5569;SDS011;2808;51.240;6.794;2024-01-15T04:40:50;19.97;;;8.73;;
5569;SDS011;2808;51.240;6.794;2024-01-15T04:43:17;20.80;;;10.83;;
5569;SDS011;2808;51.240;6.794;2024-01-15T04:45:46;19.13;;;9.30;;
5569;SDS011;2808;51.240;6.794;2024-01-15T04:48:14;20.40;;;9.47;;
5569;SDS011;2808;51.240;6.794;2024-01-15T04:50:44;21.33;;;8.73;;
5569;SDS011;2808;51.240;6.794;2024-01-15T04:53:17;25.80;;;8.43;;
5569;SDS011;2808;51.240;6.794;2024-01-15T04:55:48;26.03;;;9.13;;
5569;SDS011;2808;51.240;6.794;2024-01-15T04:58:16;24.43;;;9.10;;
5569;SDS011;2808;51.240;6.794;2024-01-15T05:00:45;21.47;;;7.87;;
5569;SDS011;2808;51.240;6.794;2024-01-15T05:03:14;23.50;;;8.90;;
5569;SDS011;2808;51.240;6.794;2024-01-15T05:05:43;20.40;;;7.67;;
5569;SDS011;2808;51.240;6.794;2024-01-15T05:08:13;18.70;;;8.80;;
5569;SDS011;2808;51.240;6.794;2024-01-15T05:10:41;20.30;;;8.10;;
5569;SDS011;2808;51.240;6.794;2024-01-15T05:13:08;23.73;;;9.60;;
5569;SDS011;2808;51.240;6.794;2024-01-15T05:15:39;20.67;;;9.30;;
5569;SDS011;2808;51.240;6.794;2024-01-15T05:18:08;20.97;;;8.63;;
5569;SDS011;2808;51.240;6.794;2024-01-15T05:20:35;18.80;;;8.00;;
5569;SDS011;2808;51.240;6.794;2024-01-15T05:23:03;19.80;;;7.83;;
5569;SDS011;2808;51.240;6.794;2024-01-15T05:25:32;21.50;;;7.77;;
5569;SDS011;2808;51.240;6.794;2024-01-15T05:27:59;23.30;;;9.17;;
5569;SDS011;2808;51.240;6.794;2024-01-15T05:30:27;25.67;;;7.83;;
5569;SDS011;2808;51.240;6.794;2024-01-15T05:32:55;18.83;;;8.00;;
5569;SDS011;2808;51.240;6.794;2024-01-15T05:35:26;17.37;;;7.23;;
5569;SDS011;2808;51.240;6.794;2024-01-15T05:37:54;18.77;;;7.60;;
5569;SDS011;2808;51.240;6.794;2024-01-15T05:40:24;32.33;;;11.50;;
5569;SDS011;2808;51.240;6.794;2024-01-15T05:42:52;22.50;;;7.03;;
5569;SDS011;2808;51.240;6.794;2024-01-15T05:45:19;18.60;;;7.93;;
5569;SDS011;2808;51.240;6.794;2024-01-15T05:47:47;21.77;;;7.30;;
5569;SDS011;2808;51.240;6.794;2024-01-15T05:50:14;13.60;;;7.03;;
5569;SDS011;2808;51.240;6.794;2024-01-15T05:52:44;16.60;;;7.17;;
5569;SDS011;2808;51.240;6.794;2024-01-15T05:55:14;18.07;;;7.40;;
5569;SDS011;2808;51.240;6.794;2024-01-15T05:57:52;18.77;;;6.90;;
5569;SDS011;2808;51.240;6.794;2024-01-15T06:00:20;19.43;;;6.57;;
5569;SDS011;2808;51.240;6.794;2024-01-15T06:02:58;19.70;;;6.77;;
5569;SDS011;2808;51.240;6.794;2024-01-15T06:05:32;14.07;;;6.50;;
5569;SDS011;2808;51.240;6.794;2024-01-15T06:08:00;20.47;;;7.53;;
5569;SDS011;2808;51.240;6.794;2024-01-15T06:10:28;15.13;;;7.13;;
5569;SDS011;2808;51.240;6.794;2024-01-15T06:12:55;20.40;;;6.97;;
5569;SDS011;2808;51.240;6.794;2024-01-15T06:15:23;19.57;;;6.90;;
5569;SDS011;2808;51.240;6.794;2024-01-15T06:17:50;21.97;;;7.93;;
5569;SDS011;2808;51.240;6.794;2024-01-15T06:20:21;17.33;;;7.00;;
5569;SDS011;2808;51.240;6.794;2024-01-15T06:22:52;15.10;;;6.70;;
5569;SDS011;2808;51.240;6.794;2024-01-15T06:25:31;18.93;;;7.40;;
5569;SDS011;2808;51.240;6.794;2024-01-15T06:28:07;15.57;;;5.97;;
5569;SDS011;2808;51.240;6.794;2024-01-15T06:30:38;18.40;;;6.23;;
5569;SDS011;2808;51.240;6.794;2024-01-15T06:33:14;16.70;;;6.67;;
5569;SDS011;2808;51.240;6.794;2024-01-15T06:35:48;13.57;;;5.80;;
5569;SDS011;2808;51.240;6.794;2024-01-15T06:38:15;13.77;;;5.87;;
5569;SDS011;2808;51.240;6.794;2024-01-15T06:40:44;16.20;;;6.33;;
5569;SDS011;2808;51.240;6.794;2024-01-15T06:43:15;14.47;;;5.37;;
5569;SDS011;2808;51.240;6.794;2024-01-15T06:45:45;17.27;;;6.20;;
5569;SDS011;2808;51.240;6.794;2024-01-15T06:48:12;14.50;;;5.67;;
5569;SDS011;2808;51.240;6.794;2024-01-15T06:50:42;10.20;;;5.07;;
5569;SDS011;2808;51.240;6.794;2024-01-15T06:53:20;10.33;;;4.40;;
5569;SDS011;2808;51.240;6.794;2024-01-15T06:55:58;11.17;;;5.40;;
5569;SDS011;2808;51.240;6.794;2024-01-15T06:58:32;13.60;;;5.43;;
5569;SDS011;2808;51.240;6.794;2024-01-15T07:01:00;12.33;;;5.73;;
5569;SDS011;2808;51.240;6.794;2024-01-15T07:03:27;13.17;;;5.60;;
5569;SDS011;2808;51.240;6.794;2024-01-15T07:06:02;12.73;;;6.13;;
5569;SDS011;2808;51.240;6.794;2024-01-15T07:08:35;18.37;;;7.37;;
5569;SDS011;2808;51.240;6.794;2024-01-15T07:11:13;15.40;;;6.10;;
5569;SDS011;2808;51.240;6.794;2024-01-15T07:13:42;13.10;;;6.43;;
5569;SDS011;2808;51.240;6.794;2024-01-15T07:16:14;18.27;;;7.10;;
5569;SDS011;2808;51.240;6.794;2024-01-15T07:18:41;14.53;;;6.80;;
5569;SDS011;2808;51.240;6.794;2024-01-15T07:21:09;15.93;;;7.83;;
5569;SDS011;2808;51.240;6.794;2024-01-15T07:23:37;13.60;;;7.10;;
5569;SDS011;2808;51.240;6.794;2024-01-15T07:26:08;17.23;;;7.30;;
5569;SDS011;2808;51.240;6.794;2024-01-15T07:28:36;16.13;;;7.37;;
5569;SDS011;2808;51.240;6.794;2024-01-15T07:31:05;24.40;;;8.90;;
5569;SDS011;2808;51.240;6.794;2024-01-15T07:33:34;16.90;;;8.67;;
5569;SDS011;2808;51.240;6.794;2024-01-15T07:36:01;29.50;;;9.60;;
5569;SDS011;2808;51.240;6.794;2024-01-15T07:38:31;19.40;;;8.17;;
5569;SDS011;2808;51.240;6.794;2024-01-15T07:40:59;20.00;;;8.30;;
5569;SDS011;2808;51.240;6.794;2024-01-15T07:43:27;16.17;;;8.30;;
5569;SDS011;2808;51.240;6.794;2024-01-15T07:45:55;18.77;;;7.73;;
5569;SDS011;2808;51.240;6.794;2024-01-15T07:48:27;25.57;;;8.57;;
5569;SDS011;2808;51.240;6.794;2024-01-15T07:50:56;19.53;;;8.90;;
5569;SDS011;2808;51.240;6.794;2024-01-15T07:53:26;17.23;;;7.97;;
5569;SDS011;2808;51.240;6.794;2024-01-15T07:55:53;16.00;;;8.20;;
5569;SDS011;2808;51.240;6.794;2024-01-15T07:58:21;20.87;;;7.50;;
5569;SDS011;2808;51.240;6.794;2024-01-15T08:00:51;20.20;;;8.13;;
5569;SDS011;2808;51.240;6.794;2024-01-15T08:03:20;16.80;;;7.50;;
5569;SDS011;2808;51.240;6.794;2024-01-15T08:05:55;16.47;;;7.50;;
5569;SDS011;2808;51.240;6.794;2024-01-15T08:08:50;18.23;;;7.30;;
5569;SDS011;2808;51.240;6.794;2024-01-15T08:11:21;17.93;;;7.70;;
5569;SDS011;2808;51.240;6.794;2024-01-15T08:14:21;18.47;;;8.20;;
5569;SDS011;2808;51.240;6.794;2024-01-15T08:16:52;16.70;;;9.57;;
5569;SDS011;2808;51.240;6.794;2024-01-15T08:19:31;17.80;;;8.43;;
5569;SDS011;2808;51.240;6.794;2024-01-15T08:22:02;23.23;;;9.90;;
5569;SDS011;2808;51.240;6.794;2024-01-15T08:24:29;19.17;;;9.20;;
5569;SDS011;2808;51.240;6.794;2024-01-15T08:26:57;26.17;;;8.67;;
5569;SDS011;2808;51.240;6.794;2024-01-15T08:29:27;17.90;;;8.00;;
5569;SDS011;2808;51.240;6.794;2024-01-15T08:31:58;22.60;;;10.13;;
5569;SDS011;2808;51.240;6.794;2024-01-15T08:34:38;17.23;;;8.90;;
5569;SDS011;2808;51.240;6.794;2024-01-15T08:37:07;17.47;;;8.80;;
5569;SDS011;2808;51.240;6.794;2024-01-15T08:39:39;16.73;;;9.03;;
5569;SDS011;2808;51.240;6.794;2024-01-15T08:42:13;21.80;;;8.93;;
5569;SDS011;2808;51.240;6.794;2024-01-15T08:44:41;15.53;;;8.07;;
5569;SDS011;2808;51.240;6.794;2024-01-15T08:47:28;18.63;;;8.70;;
5569;SDS011;2808;51.240;6.794;2024-01-15T08:50:10;20.90;;;8.83;;
5569;SDS011;2808;51.240;6.794;2024-01-15T08:56:25;17.07;;;8.93;;
5569;SDS011;2808;51.240;6.794;2024-01-15T09:02:31;19.33;;;8.63;;
5569;SDS011;2808;51.240;6.794;2024-01-15T09:05:06;15.50;;;8.23;;
5569;SDS011;2808;51.240;6.794;2024-01-15T09:08:25;16.83;;;7.90;;
5569;SDS011;2808;51.240;6.794;2024-01-15T09:11:57;18.27;;;8.23;;
5569;SDS011;2808;51.240;6.794;2024-01-15T09:40:38;14.47;;;7.47;;
5569;SDS011;2808;51.240;6.794;2024-01-15T09:43:14;19.27;;;8.40;;
5569;SDS011;2808;51.240;6.794;2024-01-15T09:46:17;14.03;;;7.50;;
5569;SDS011;2808;51.240;6.794;2024-01-15T09:49:03;12.90;;;7.47;;
5569;SDS011;2808;51.240;6.794;2024-01-15T09:51:39;13.60;;;7.53;;
5569;SDS011;2808;51.240;6.794;2024-01-15T09:54:23;14.30;;;7.57;;
5569;SDS011;2808;51.240;6.794;2024-01-15T09:57:08;12.53;;;6.90;;
5569;SDS011;2808;51.240;6.794;2024-01-15T10:10:28;11.20;;;6.50;;
5569;SDS011;2808;51.240;6.794;2024-01-15T10:13:14;12.93;;;6.57;;
5569;SDS011;2808;51.240;6.794;2024-01-15T10:15:54;13.53;;;6.20;;
5569;SDS011;2808;51.240;6.794;2024-01-15T10:18:23;12.87;;;5.90;;
5569;SDS011;2808;51.240;6.794;2024-01-15T10:21:10;12.27;;;5.53;;
5569;SDS011;2808;51.240;6.794;2024-01-15T10:23:53;7.63;;;4.63;;
5569;SDS011;2808;51.240;6.794;2024-01-15T10:36:59;8.60;;;4.43;;
5569;SDS011;2808;51.240;6.794;2024-01-15T10:40:22;10.53;;;4.43;;
5569;SDS011;2808;51.240;6.794;2024-01-15T10:43:37;6.00;;;3.40;;
5569;SDS011;2808;51.240;6.794;2024-01-15T10:46:53;6.53;;;4.00;;
5569;SDS011;2808;51.240;6.794;2024-01-15T10:49:37;7.10;;;3.50;;
5569;SDS011;2808;51.240;6.794;2024-01-15T10:52:22;7.40;;;4.17;;
5569;SDS011;2808;51.240;6.794;2024-01-15T10:54:56;7.37;;;3.93;;
5569;SDS011;2808;51.240;6.794;2024-01-15T10:57:43;9.30;;;3.90;;
5569;SDS011;2808;51.240;6.794;2024-01-15T11:00:40;6.70;;;3.63;;
5569;SDS011;2808;51.240;6.794;2024-01-15T11:03:49;7.57;;;3.90;;
5569;SDS011;2808;51.240;6.794;2024-01-15T11:07:01;7.53;;;3.83;;
5569;SDS011;2808;51.240;6.794;2024-01-15T11:09:41;6.60;;;3.20;;
5569;SDS011;2808;51.240;6.794;2024-01-15T11:12:15;8.73;;;3.13;;
5569;SDS011;2808;51.240;6.794;2024-01-15T11:18:34;5.00;;;2.60;;
5569;SDS011;2808;51.240;6.794;2024-01-15T11:21:21;7.40;;;2.30;;
5569;SDS011;2808;51.240;6.794;2024-01-15T11:24:19;7.27;;;2.50;;
5569;SDS011;2808;51.240;6.794;2024-01-15T11:27:39;5.30;;;2.10;;
5569;SDS011;2808;51.240;6.794;2024-01-15T11:30:46;11.67;;;2.27;;
5569;SDS011;2808;51.240;6.794;2024-01-15T11:33:35;6.93;;;1.60;;
5569;SDS011;2808;51.240;6.794;2024-01-15T11:39:51;5.50;;;2.10;;
5569;SDS011;2808;51.240;6.794;2024-01-15T11:42:32;6.33;;;2.33;;
5569;SDS011;2808;51.240;6.794;2024-01-15T11:45:11;8.57;;;3.23;;
5569;SDS011;2808;51.240;6.794;2024-01-15T11:47:58;8.10;;;2.63;;
5569;SDS011;2808;51.240;6.794;2024-01-15T11:54:29;4.77;;;2.53;;
5569;SDS011;2808;51.240;6.794;2024-01-15T12:08:23;10.00;;;2.80;;
5569;SDS011;2808;51.240;6.794;2024-01-15T12:18:03;11.93;;;3.00;;
5569;SDS011;2808;51.240;6.794;2024-01-15T12:24:22;8.00;;;3.57;;
5569;SDS011;2808;51.240;6.794;2024-01-15T12:26:56;10.43;;;3.87;;
5569;SDS011;2808;51.240;6.794;2024-01-15T12:29:26;6.47;;;3.07;;
5569;SDS011;2808;51.240;6.794;2024-01-15T12:32:47;7.77;;;3.67;;
5569;SDS011;2808;51.240;6.794;2024-01-15T12:35:17;9.13;;;4.17;;
5569;SDS011;2808;51.240;6.794;2024-01-15T12:37:59;8.27;;;4.07;;
5569;SDS011;2808;51.240;6.794;2024-01-15T12:40:32;9.70;;;4.30;;
5569;SDS011;2808;51.240;6.794;2024-01-15T12:43:01;10.70;;;3.90;;
5569;SDS011;2808;51.240;6.794;2024-01-15T12:45:34;10.20;;;4.30;;
5569;SDS011;2808;51.240;6.794;2024-01-15T12:48:02;11.40;;;5.63;;
5569;SDS011;2808;51.240;6.794;2024-01-15T12:50:31;11.20;;;5.17;;
5569;SDS011;2808;51.240;6.794;2024-01-15T12:53:02;13.00;;;5.50;;
5569;SDS011;2808;51.240;6.794;2024-01-15T12:55:30;13.67;;;5.93;;
5569;SDS011;2808;51.240;6.794;2024-01-15T12:57:59;15.40;;;5.37;;
5569;SDS011;2808;51.240;6.794;2024-01-15T13:00:37;10.60;;;5.30;;
5569;SDS011;2808;51.240;6.794;2024-01-15T13:03:25;10.13;;;5.20;;
5569;SDS011;2808;51.240;6.794;2024-01-15T13:05:52;9.63;;;4.70;;
5569;SDS011;2808;51.240;6.794;2024-01-15T13:08:21;10.07;;;4.47;;
5569;SDS011;2808;51.240;6.794;2024-01-15T13:10:52;11.57;;;4.97;;
5569;SDS011;2808;51.240;6.794;2024-01-15T13:13:22;15.90;;;4.30;;
5569;SDS011;2808;51.240;6.794;2024-01-15T13:15:49;10.40;;;4.53;;
5569;SDS011;2808;51.240;6.794;2024-01-15T13:18:17;10.30;;;4.50;;
5569;SDS011;2808;51.240;6.794;2024-01-15T13:20:48;9.57;;;4.10;;
5569;SDS011;2808;51.240;6.794;2024-01-15T13:23:15;7.00;;;3.63;;
5569;SDS011;2808;51.240;6.794;2024-01-15T13:25:44;9.90;;;3.73;;
5569;SDS011;2808;51.240;6.794;2024-01-15T13:28:12;9.30;;;4.40;;
5569;SDS011;2808;51.240;6.794;2024-01-15T13:30:40;6.23;;;3.60;;
5569;SDS011;2808;51.240;6.794;2024-01-15T13:33:08;5.93;;;2.97;;
5569;SDS011;2808;51.240;6.794;2024-01-15T13:35:40;5.27;;;2.97;;
5569;SDS011;2808;51.240;6.794;2024-01-15T13:38:08;10.53;;;3.30;;
5569;SDS011;2808;51.240;6.794;2024-01-15T13:40:36;11.83;;;2.80;;
5569;SDS011;2808;51.240;6.794;2024-01-15T13:43:05;5.60;;;2.97;;
5569;SDS011;2808;51.240;6.794;2024-01-15T13:49:02;6.70;;;2.50;;
5569;SDS011;2808;51.240;6.794;2024-01-15T13:52:00;7.37;;;2.70;;
5569;SDS011;2808;51.240;6.794;2024-01-15T13:54:32;6.73;;;2.03;;
5569;SDS011;2808;51.240;6.794;2024-01-15T13:57:09;5.17;;;1.90;;
5569;SDS011;2808;51.240;6.794;2024-01-15T13:59:52;4.77;;;1.67;;
5569;SDS011;2808;51.240;6.794;2024-01-15T14:05:38;11.73;;;1.80;;
5569;SDS011;2808;51.240;6.794;2024-01-15T14:08:06;6.40;;;1.50;;
5569;SDS011;2808;51.240;6.794;2024-01-15T14:10:47;2.90;;;1.30;;
5569;SDS011;2808;51.240;6.794;2024-01-15T14:14:13;3.47;;;1.40;;
5569;SDS011;2808;51.240;6.794;2024-01-15T14:16:43;3.70;;;1.30;;
5569;SDS011;2808;51.240;6.794;2024-01-15T14:19:13;3.63;;;2.03;;
5569;SDS011;2808;51.240;6.794;2024-01-15T14:21:45;5.13;;;1.67;;
5569;SDS011;2808;51.240;6.794;2024-01-15T14:24:12;4.53;;;1.67;;
5569;SDS011;2808;51.240;6.794;2024-01-15T14:26:41;4.30;;;1.63;;
5569;SDS011;2808;51.240;6.794;2024-01-15T14:29:08;3.83;;;1.87;;
5569;SDS011;2808;51.240;6.794;2024-01-15T14:31:39;3.60;;;1.80;;
5569;SDS011;2808;51.240;6.794;2024-01-15T14:34:08;5.67;;;1.60;;
5569;SDS011;2808;51.240;6.794;2024-01-15T14:36:38;4.90;;;1.60;;
5569;SDS011;2808;51.240;6.794;2024-01-15T14:39:14;4.60;;;1.50;;
5569;SDS011;2808;51.240;6.794;2024-01-15T14:41:42;3.80;;;1.87;;
5569;SDS011;2808;51.240;6.794;2024-01-15T14:44:09;4.60;;;1.83;;
5569;SDS011;2808;51.240;6.794;2024-01-15T14:46:40;3.70;;;1.97;;
5569;SDS011;2808;51.240;6.794;2024-01-15T14:49:18;8.43;;;1.73;;
5569;SDS011;2808;51.240;6.794;2024-01-15T14:51:47;5.43;;;1.70;;
5569;SDS011;2808;51.240;6.794;2024-01-15T14:54:17;4.13;;;1.60;;
5569;SDS011;2808;51.240;6.794;2024-01-15T14:56:45;3.20;;;1.70;;
5569;SDS011;2808;51.240;6.794;2024-01-15T14:59:13;5.00;;;1.80;;
5569;SDS011;2808;51.240;6.794;2024-01-15T15:01:57;5.07;;;1.57;;
5569;SDS011;2808;51.240;6.794;2024-01-15T15:04:30;3.90;;;1.50;;
5569;SDS011;2808;51.240;6.794;2024-01-15T15:07:06;3.00;;;1.60;;
5569;SDS011;2808;51.240;6.794;2024-01-15T15:10:11;3.60;;;1.57;;
5569;SDS011;2808;51.240;6.794;2024-01-15T15:12:38;3.50;;;1.63;;
5569;SDS011;2808;51.240;6.794;2024-01-15T15:15:06;3.80;;;1.60;;
5569;SDS011;2808;51.240;6.794;2024-01-15T15:17:36;4.13;;;1.67;;
5569;SDS011;2808;51.240;6.794;2024-01-15T15:20:08;6.83;;;2.00;;
5569;SDS011;2808;51.240;6.794;2024-01-15T15:22:37;4.60;;;2.03;;
5569;SDS011;2808;51.240;6.794;2024-01-15T15:25:16;4.03;;;1.63;;
5569;SDS011;2808;51.240;6.794;2024-01-15T15:27:57;2.73;;;1.30;;
5569;SDS011;2808;51.240;6.794;2024-01-15T15:30:34;6.83;;;1.47;;
5569;SDS011;2808;51.240;6.794;2024-01-15T15:33:02;13.17;;;5.93;;
5569;SDS011;2808;51.240;6.794;2024-01-15T15:35:33;3.27;;;1.37;;
5569;SDS011;2808;51.240;6.794;2024-01-15T15:38:01;4.10;;;1.77;;
5569;SDS011;2808;51.240;6.794;2024-01-15T15:40:28;4.30;;;1.93;;
5569;SDS011;2808;51.240;6.794;2024-01-15T15:42:59;3.53;;;1.60;;
5569;SDS011;2808;51.240;6.794;2024-01-15T15:45:38;6.50;;;1.83;;
5569;SDS011;2808;51.240;6.794;2024-01-15T15:48:08;3.10;;;1.50;;
5569;SDS011;2808;51.240;6.794;2024-01-15T15:50:37;4.97;;;1.80;;
5569;SDS011;2808;51.240;6.794;2024-01-15T15:53:11;4.20;;;1.70;;
5569;SDS011;2808;51.240;6.794;2024-01-15T15:55:39;7.30;;;1.73;;
5569;SDS011;2808;51.240;6.794;2024-01-15T15:58:24;5.80;;;2.10;;
5569;SDS011;2808;51.240;6.794;2024-01-15T16:00:55;3.53;;;2.00;;
5569;SDS011;2808;51.240;6.794;2024-01-15T16:03:27;6.40;;;3.20;;
5569;SDS011;2808;51.240;6.794;2024-01-15T16:09:18;4.97;;;2.23;;
5569;SDS011;2808;51.240;6.794;2024-01-15T16:12:29;6.60;;;1.93;;
5569;SDS011;2808;51.240;6.794;2024-01-15T16:15:21;5.73;;;1.90;;
5569;SDS011;2808;51.240;6.794;2024-01-15T16:18:07;6.93;;;2.03;;
5569;SDS011;2808;51.240;6.794;2024-01-15T16:20:50;10.60;;;2.60;;
5569;SDS011;2808;51.240;6.794;2024-01-15T16:23:23;7.07;;;2.10;;
5569;SDS011;2808;51.240;6.794;2024-01-15T16:25:55;4.97;;;2.23;;
5569;SDS011;2808;51.240;6.794;2024-01-15T16:29:01;4.50;;;1.90;;
5569;SDS011;2808;51.240;6.794;2024-01-15T16:34:04;10.13;;;2.23;;
5569;SDS011;2808;51.240;6.794;2024-01-15T16:35:33;9.23;;;3.03;;
5569;SDS011;2808;51.240;6.794;2024-01-15T16:38:30;6.43;;;2.50;;
5569;SDS011;2808;51.240;6.794;2024-01-15T16:41:55;6.87;;;2.47;;
5569;SDS011;2808;51.240;6.794;2024-01-15T16:44:57;8.00;;;2.53;;
5569;SDS011;2808;51.240;6.794;2024-01-15T16:47:32;10.60;;;3.00;;
5569;SDS011;2808;51.240;6.794;2024-01-15T16:50:21;7.03;;;2.87;;
5569;SDS011;2808;51.240;6.794;2024-01-15T16:53:07;13.70;;;3.27;;
5569;SDS011;2808;51.240;6.794;2024-01-15T16:58:59;7.20;;;3.30;;
5569;SDS011;2808;51.240;6.794;2024-01-15T17:01:26;13.90;;;3.97;;
5569;SDS011;2808;51.240;6.794;2024-01-15T17:04:09;7.47;;;3.67;;
5569;SDS011;2808;51.240;6.794;2024-01-15T17:06:59;11.93;;;3.37;;
5569;SDS011;2808;51.240;6.794;2024-01-15T17:09:31;13.70;;;3.43;;
5569;SDS011;2808;51.240;6.794;2024-01-15T17:15:40;15.60;;;4.37;;
5569;SDS011;2808;51.240;6.794;2024-01-15T17:18:21;6.50;;;3.50;;
5569;SDS011;2808;51.240;6.794;2024-01-15T17:20:55;11.70;;;4.37;;
5569;SDS011;2808;51.240;6.794;2024-01-15T17:24:07;9.13;;;3.30;;
5569;SDS011;2808;51.240;6.794;2024-01-15T17:26:38;15.30;;;4.43;;
5569;SDS011;2808;51.240;6.794;2024-01-15T17:29:12;13.83;;;4.30;;
5569;SDS011;2808;51.240;6.794;2024-01-15T17:31:47;7.87;;;3.50;;
5569;SDS011;2808;51.240;6.794;2024-01-15T17:34:15;12.20;;;4.33;;
5569;SDS011;2808;51.240;6.794;2024-01-15T17:36:43;11.83;;;4.13;;
5569;SDS011;2808;51.240;6.794;2024-01-15T17:39:14;10.50;;;3.60;;
5569;SDS011;2808;51.240;6.794;2024-01-15T17:41:43;8.73;;;3.70;;